createdAt,value
2018-04-02T00:02:20.919Z,95616.62
2018-04-02T00:04:49.228Z,95623.09
2018-04-02T00:07:17.580Z,95617.61
2018-04-02T00:09:45.887Z,95614.99
2018-04-02T00:12:14.229Z,95618.22
2018-04-02T00:14:42.539Z,95622.95
2018-04-02T00:17:10.847Z,95624.19
2018-04-02T00:19:39.240Z,95624.64
2018-04-02T00:22:07.546Z,95617.23
2018-04-02T00:24:35.878Z,95629.36
2018-04-02T00:27:04.197Z,95622.86
2018-04-02T00:29:32.511Z,95618.52
2018-04-02T00:32:00.832Z,95622.42
2018-04-02T00:34:29.157Z,95624.05
2018-04-02T00:36:57.483Z,95623.36
2018-04-02T00:39:25.831Z,95618.83
2018-04-02T00:41:54.134Z,95617.09
2018-04-02T00:44:22.475Z,95624.60
2018-04-02T00:46:50.782Z,95623.35
2018-04-02T00:49:19.175Z,95622.81
2018-04-02T00:51:47.483Z,95619.17
2018-04-02T00:54:15.823Z,95615.99
2018-04-02T00:56:44.203Z,95614.05
2018-04-02T00:59:12.538Z,95616.40
2018-04-02T01:01:40.862Z,95619.13
2018-04-02T01:04:09.240Z,95616.55
2018-04-02T01:06:37.560Z,95617.14
2018-04-02T01:09:05.868Z,95617.09
2018-04-02T01:11:34.220Z,95621.66
2018-04-02T01:14:02.528Z,95616.20
2018-04-02T01:16:31.075Z,95622.21
2018-04-02T01:18:59.363Z,95613.75
2018-04-02T01:21:27.767Z,95622.81
2018-04-02T01:23:56.068Z,95621.06
2018-04-02T01:26:24.441Z,95611.91
2018-04-02T01:28:52.742Z,95621.52
2018-04-02T01:31:21.099Z,95608.09
2018-04-02T01:33:49.398Z,95604.66
2018-04-02T01:36:17.751Z,95602.58
2018-04-02T01:38:46.074Z,95608.05
2018-04-02T01:41:14.500Z,95608.53
2018-04-02T01:43:42.816Z,95603.02
2018-04-02T01:46:11.154Z,95601.38
2018-04-02T01:48:39.470Z,95595.56
2018-04-02T01:51:07.787Z,95601.54
2018-04-02T01:53:36.195Z,95603.83
2018-04-02T01:56:04.587Z,95591.54
2018-04-02T01:58:32.947Z,95589.80
2018-04-02T02:01:01.302Z,95593.17
2018-04-02T02:03:29.710Z,95585.22
2018-04-02T02:05:58.020Z,95587.45
2018-04-02T02:08:26.357Z,95581.27
2018-04-02T02:10:54.734Z,95589.44
2018-04-02T02:13:23.122Z,95593.59
2018-04-02T02:15:51.492Z,95589.80
2018-04-02T02:18:19.838Z,95586.45
2018-04-02T02:20:48.134Z,95589.11
2018-04-02T02:23:16.477Z,95581.45
2018-04-02T02:25:44.774Z,95583.19
2018-04-02T02:28:13.284Z,95581.22
2018-04-02T02:30:41.585Z,95579.02
2018-04-02T02:33:09.921Z,95587.67
2018-04-02T02:35:38.235Z,95578.41
2018-04-02T02:38:06.599Z,95578.27
2018-04-02T02:40:34.903Z,95585.89
2018-04-02T02:43:03.264Z,95585.78
2018-04-02T02:45:31.582Z,95586.94
2018-04-02T02:47:59.918Z,95593.09
2018-04-02T02:50:28.310Z,95591.44
2018-04-02T02:52:56.666Z,95595.58
2018-04-02T02:55:25.093Z,95593.05
2018-04-02T02:57:53.398Z,95594.02
2018-04-02T03:00:21.802Z,95590.07
2018-04-02T03:02:50.233Z,95588.37
2018-04-02T03:05:18.573Z,95592.08
2018-04-02T03:07:46.902Z,95600.47
2018-04-02T03:10:15.228Z,95589.13
2018-04-02T03:12:43.589Z,95595.47
2018-04-02T03:15:11.915Z,95600.22
2018-04-02T03:17:40.265Z,95598.05
2018-04-02T03:20:08.599Z,95590.30
2018-04-02T03:22:36.919Z,95594.39
2018-04-02T03:25:05.274Z,95588.42
2018-04-02T03:27:33.576Z,95584.94
2018-04-02T03:30:01.903Z,95580.74
2018-04-02T03:32:30.214Z,95586.28
2018-04-02T03:34:58.545Z,95583.81
2018-04-02T03:37:26.836Z,95582.05
2018-04-02T03:39:55.179Z,95583.28
2018-04-02T03:42:23.511Z,95574.81
2018-04-02T03:44:51.886Z,95581.03
2018-04-02T03:47:20.211Z,95580.61
2018-04-02T03:49:48.547Z,95574.16
2018-04-02T03:52:16.915Z,95577.16
2018-04-02T03:54:45.232Z,95579.73
2018-04-02T03:57:13.671Z,95579.98
2018-04-02T03:59:41.980Z,95576.52
2018-04-02T04:02:10.307Z,95580.24
2018-04-02T04:04:38.606Z,95586.36
2018-04-02T04:07:06.982Z,95579.48
2018-04-02T04:09:35.289Z,95577.56
2018-04-02T04:12:03.627Z,95576.00
2018-04-02T04:14:31.933Z,95575.75
2018-04-02T04:17:00.268Z,95579.52
2018-04-02T04:19:28.651Z,95574.13
2018-04-02T04:21:57.047Z,95577.49
2018-04-02T04:24:25.362Z,95579.38
2018-04-02T04:26:53.682Z,95576.26
2018-04-02T04:29:21.980Z,95577.05
2018-04-02T04:31:50.319Z,95581.79
2018-04-02T04:34:18.633Z,95582.91
2018-04-02T04:36:46.990Z,95583.19
2018-04-02T04:39:15.396Z,95581.75
2018-04-02T04:41:43.730Z,95588.22
2018-04-02T04:44:12.028Z,95576.36
2018-04-02T04:46:40.419Z,95579.66
2018-04-02T04:49:08.804Z,95573.34
2018-04-02T04:51:37.260Z,95574.38
2018-04-02T04:54:05.561Z,95575.98
2018-04-02T04:56:33.935Z,95578.00
2018-04-02T04:59:02.288Z,95573.24
2018-04-02T05:01:30.691Z,95578.90
2018-04-02T05:03:59.021Z,95580.49
2018-04-02T05:06:27.331Z,95575.39
2018-04-02T05:08:55.675Z,95576.17
2018-04-02T05:11:24.016Z,95576.77
2018-04-02T05:13:52.346Z,95575.23
2018-04-02T05:16:20.762Z,95571.42
2018-04-02T05:18:49.102Z,95573.57
2018-04-02T05:21:17.498Z,95566.73
2018-04-02T05:23:45.838Z,95568.23
2018-04-02T05:26:14.138Z,95563.41
2018-04-02T05:28:42.467Z,95559.60
2018-04-02T05:31:10.792Z,95558.70
2018-04-02T05:33:39.151Z,95555.95
2018-04-02T05:36:07.483Z,95561.12
2018-04-02T05:38:35.819Z,95558.80
2018-04-02T05:41:04.120Z,95563.73
2018-04-02T05:43:32.707Z,95568.11
2018-04-02T05:46:01.006Z,95567.94
2018-04-02T05:48:29.382Z,95564.28
2018-04-02T05:50:57.709Z,95562.26
2018-04-02T05:53:26.037Z,95565.25
2018-04-02T05:55:54.378Z,95561.72
2018-04-02T05:58:22.690Z,95557.81
2018-04-02T06:00:51.033Z,95558.88
2018-04-02T06:03:19.427Z,95567.50
2018-04-02T06:05:47.816Z,95562.32
2018-04-02T06:08:16.119Z,95563.15
2018-04-02T06:10:44.471Z,95560.64
2018-04-02T06:13:12.863Z,95562.66
2018-04-02T06:15:41.183Z,95558.91
2018-04-02T06:18:09.495Z,95559.91
2018-04-02T06:20:37.824Z,95559.54
2018-04-02T06:23:06.198Z,95553.94
2018-04-02T06:25:34.526Z,95557.34
2018-04-02T06:28:02.836Z,95555.84
2018-04-02T06:30:31.190Z,95553.03
2018-04-02T06:32:59.506Z,95550.53
2018-04-02T06:35:27.829Z,95547.40
2018-04-02T06:37:56.223Z,95548.80
2018-04-02T06:40:24.698Z,95552.70
2018-04-02T06:42:53.092Z,95550.45
2018-04-02T06:45:21.403Z,95548.17
2018-04-02T06:47:50.501Z,95546.25
2018-04-02T06:50:18.832Z,95541.84
2018-04-02T06:52:47.207Z,95545.62
2018-04-02T06:55:15.627Z,95541.95
2018-04-02T06:57:43.963Z,95535.98
2018-04-02T07:00:12.273Z,95539.98
2018-04-02T07:02:40.639Z,95542.45
2018-04-02T07:05:08.946Z,95537.59
2018-04-02T07:07:37.374Z,95538.12
2018-04-02T07:10:05.684Z,95533.47
2018-04-02T07:12:34.087Z,95532.80
2018-04-02T07:15:02.382Z,95532.13
2018-04-02T07:17:30.788Z,95533.45
2018-04-02T07:19:59.094Z,95531.91
2018-04-02T07:22:27.446Z,95528.89
2018-04-02T07:24:55.749Z,95530.50
2018-04-02T07:27:24.094Z,95530.75
2018-04-02T07:29:52.390Z,95525.27
2018-04-02T07:32:20.726Z,95527.56
2018-04-02T07:34:49.147Z,95526.92
2018-04-02T07:37:17.512Z,95528.91
2018-04-02T07:39:45.886Z,95528.08
2018-04-02T07:42:14.255Z,95523.20
2018-04-02T07:44:42.677Z,95525.58
2018-04-02T07:47:10.973Z,95521.75
2018-04-02T07:49:39.341Z,95514.38
2018-04-02T07:52:07.645Z,95523.30
2018-04-02T07:54:36.055Z,95518.23
2018-04-02T07:57:04.436Z,95518.87
2018-04-02T07:59:32.812Z,95517.46
2018-04-02T08:02:01.114Z,95520.80
2018-04-02T08:04:29.458Z,95520.41
2018-04-02T08:06:57.771Z,95524.05
2018-04-02T08:09:26.127Z,95524.12
2018-04-02T08:11:54.501Z,95520.32
2018-04-02T08:14:22.833Z,95523.50
2018-04-02T08:16:51.135Z,95526.42
2018-04-02T08:19:19.477Z,95532.67
2018-04-02T08:21:47.823Z,95532.09
2018-04-02T08:24:16.181Z,95516.91
2018-04-02T08:26:44.519Z,95517.84
2018-04-02T08:29:12.838Z,95513.42
2018-04-02T08:31:41.327Z,95518.87
2018-04-02T08:34:09.653Z,95523.08
2018-04-02T08:36:38.076Z,95519.52
2018-04-02T08:39:06.374Z,95518.47
2018-04-02T08:41:34.716Z,95514.83
2018-04-02T08:44:03.022Z,95520.17
2018-04-02T08:46:31.345Z,95511.75
2018-04-02T08:48:59.751Z,95514.34
2018-04-02T08:51:28.079Z,95514.10
2018-04-02T08:53:56.420Z,95520.22
2018-04-02T08:56:24.799Z,95517.16
2018-04-02T08:58:53.177Z,95517.67
2018-04-02T09:01:21.495Z,95507.66
2018-04-02T09:03:49.837Z,95506.47
2018-04-02T09:06:18.315Z,95505.45
2018-04-02T09:08:46.669Z,95502.34
2018-04-02T09:11:15.071Z,95501.93
2018-04-02T09:13:43.406Z,95493.86
2018-04-02T09:16:11.716Z,95494.95
2018-04-02T09:18:40.061Z,95493.70
2018-04-02T09:21:08.362Z,95497.76
2018-04-02T09:23:36.708Z,95498.17
2018-04-02T09:26:05.026Z,95490.53
2018-04-02T09:28:33.357Z,95486.56
2018-04-02T09:31:01.679Z,95479.25
2018-04-02T09:33:30.016Z,95478.39
2018-04-02T09:35:58.435Z,95465.34
2018-04-02T09:38:26.762Z,95466.48
2018-04-02T09:40:55.107Z,95460.81
2018-04-02T09:43:23.471Z,95464.80
2018-04-02T09:45:51.863Z,95460.78
2018-04-02T09:48:20.199Z,95456.27
2018-04-02T09:50:48.486Z,95455.38
2018-04-02T09:53:16.842Z,95451.67
2018-04-02T09:55:45.185Z,95450.33
2018-04-02T09:58:13.538Z,95445.20
2018-04-02T10:00:41.868Z,95443.84
2018-04-02T10:03:10.176Z,95441.36
2018-04-02T10:05:38.509Z,95433.39
2018-04-02T10:08:06.851Z,95428.34
2018-04-02T10:10:35.198Z,95428.57
2018-04-02T10:13:03.621Z,95434.27
2018-04-02T10:15:32.032Z,95423.25
2018-04-02T10:18:00.339Z,95417.29
2018-04-02T10:20:28.754Z,95418.60
2018-04-02T10:22:57.052Z,95408.75
2018-04-02T10:25:25.506Z,95416.37
2018-04-02T10:27:53.862Z,95409.98
2018-04-02T10:30:22.361Z,95413.31
2018-04-02T10:32:50.722Z,95407.04
2018-04-02T10:35:19.356Z,95399.59
2018-04-02T10:37:47.736Z,95400.55
2018-04-02T10:40:16.087Z,95393.07
2018-04-02T10:42:44.499Z,95386.92
2018-04-02T10:45:12.835Z,95383.13
2018-04-02T10:47:41.558Z,95377.13
2018-04-02T10:50:09.863Z,95376.53
2018-04-02T10:52:38.216Z,95364.08
2018-04-02T10:55:06.575Z,95361.59
2018-04-02T10:57:35.065Z,95359.15
2018-04-02T11:00:03.362Z,95353.16
2018-04-02T11:02:31.699Z,95347.87
2018-04-02T11:05:00.063Z,95349.20
2018-04-02T11:07:28.406Z,95345.83
2018-04-02T11:09:56.848Z,95341.50
2018-04-02T11:12:25.209Z,95334.44
2018-04-02T11:14:53.575Z,95330.50
2018-04-02T11:17:21.922Z,95326.25
2018-04-02T11:19:50.237Z,95326.93
2018-04-02T11:22:18.661Z,95326.94
2018-04-02T11:24:46.959Z,95325.04
2018-04-02T11:27:15.296Z,95315.89
2018-04-02T11:29:43.612Z,95310.16
2018-04-02T11:32:11.950Z,95304.31
2018-04-02T11:34:40.261Z,95307.13
2018-04-02T11:37:08.670Z,95302.53
2018-04-02T11:39:36.983Z,95306.00
2018-04-02T11:42:05.353Z,95296.69
2018-04-02T11:44:33.706Z,95298.61
2018-04-02T11:47:02.023Z,95288.28
2018-04-02T11:49:30.355Z,95281.34
2018-04-02T11:51:58.671Z,95294.72
2018-04-02T11:56:54.386Z,95282.49
2018-04-02T11:59:22.749Z,95277.57
2018-04-02T12:01:51.063Z,95277.58
2018-04-02T12:04:19.523Z,95272.49
2018-04-02T12:06:47.846Z,95272.52
2018-04-02T12:09:16.193Z,95268.80
2018-04-02T12:11:44.509Z,95263.32
2018-04-02T12:14:12.899Z,95259.14
2018-04-02T12:16:41.210Z,95257.22
2018-04-02T12:19:09.582Z,95255.25
2018-04-02T12:21:38.687Z,95261.27
2018-04-02T12:24:07.032Z,95243.11
2018-04-02T12:26:36.542Z,95240.02
2018-04-02T12:29:04.880Z,95234.67
2018-04-02T12:31:33.348Z,95231.27
2018-04-02T12:34:01.688Z,95229.35
2018-04-02T12:36:30.012Z,95229.89
2018-04-02T12:38:58.343Z,95226.00
2018-04-02T12:41:26.927Z,95216.08
2018-04-02T12:43:56.969Z,95220.13
2018-04-02T12:46:25.298Z,95217.58
2018-04-02T12:48:57.180Z,95213.94
2018-04-02T12:51:25.538Z,95208.58
2018-04-02T12:53:53.850Z,95198.27
2018-04-02T12:56:22.264Z,95198.85
2018-04-02T12:58:50.606Z,95194.08
2018-04-02T13:01:18.948Z,95191.42
2018-04-02T13:03:47.300Z,95186.20
2018-04-02T13:06:15.631Z,95181.81
2018-04-02T13:08:43.942Z,95176.80
2018-04-02T13:11:12.305Z,95173.59
2018-04-02T13:13:41.206Z,95169.88
2018-04-02T13:16:09.539Z,95163.77
2018-04-02T13:18:37.872Z,95157.72
2018-04-02T13:21:06.207Z,95146.43
2018-04-02T13:23:34.568Z,95142.28
2018-04-02T13:26:02.917Z,95145.63
2018-04-02T13:28:31.448Z,95139.56
2018-04-02T13:30:59.824Z,95131.98
2018-04-02T13:33:28.148Z,95122.37
2018-04-02T13:35:56.974Z,95117.12
2018-04-02T13:38:25.352Z,95117.66
2018-04-02T13:40:53.702Z,95117.23
2018-04-02T13:43:22.033Z,95114.66
2018-04-02T13:45:50.355Z,95117.97
2018-04-02T13:48:18.699Z,95115.09
2018-04-02T13:50:47.011Z,95112.54
2018-04-02T13:53:15.365Z,95112.21
2018-04-02T13:55:43.656Z,95102.22
2018-04-02T13:58:12.011Z,95092.36
2018-04-02T14:00:40.333Z,95087.64
2018-04-02T14:03:08.678Z,95098.56
2018-04-02T14:05:37.002Z,95098.63
2018-04-02T14:08:05.354Z,95090.80
2018-04-02T14:10:33.666Z,95084.50
2018-04-02T14:13:02.091Z,95075.23
2018-04-02T14:15:30.394Z,95068.28
2018-04-02T14:17:58.738Z,95069.77
2018-04-02T14:20:27.047Z,95063.27
2018-04-02T14:22:55.399Z,95068.37
2018-04-02T14:25:23.768Z,95066.20
2018-04-02T14:27:52.103Z,95065.12
2018-04-02T14:30:20.423Z,95060.71
2018-04-02T14:32:48.801Z,95062.59
2018-04-02T14:35:17.134Z,95062.79
2018-04-02T14:37:45.518Z,95061.45
2018-04-02T14:40:13.828Z,95052.83
2018-04-02T14:42:42.246Z,95055.43
2018-04-02T14:45:10.562Z,95045.42
2018-04-02T14:47:38.874Z,95043.73
2018-04-02T14:50:07.201Z,95043.00
2018-04-02T14:52:35.512Z,95033.05
2018-04-02T14:55:03.863Z,95031.81
2018-04-02T14:57:32.207Z,95034.98
2018-04-02T15:00:00.543Z,95034.81
2018-04-02T15:02:28.875Z,95027.70
2018-04-02T15:04:57.219Z,95024.26
2018-04-02T15:07:25.521Z,95028.14
2018-04-02T15:09:53.860Z,95018.95
2018-04-02T15:12:22.203Z,95015.16
2018-04-02T15:14:50.574Z,95015.99
2018-04-02T15:17:18.898Z,95021.23
2018-04-02T15:19:47.230Z,95012.97
2018-04-02T15:22:16.423Z,95013.66
2018-04-02T15:24:44.768Z,95009.52
2018-04-02T15:27:13.088Z,95000.14
2018-04-02T15:29:41.446Z,95002.72
2018-04-02T15:32:09.769Z,95008.67
2018-04-02T15:34:38.116Z,95004.52
2018-04-02T15:37:06.434Z,95003.22
2018-04-02T15:39:34.876Z,94995.35
2018-04-02T15:42:03.189Z,95000.66
2018-04-02T15:44:31.568Z,95000.41
2018-04-02T15:46:59.909Z,94991.70
2018-04-02T15:49:28.247Z,94992.69
2018-04-02T15:51:56.578Z,94992.92
2018-04-02T15:54:24.894Z,94987.19
2018-04-02T15:56:53.250Z,94983.44
2018-04-02T15:59:21.568Z,94983.30
2018-04-02T16:01:49.920Z,94984.94
2018-04-02T16:04:18.260Z,94979.26
2018-04-02T16:06:46.595Z,94983.16
2018-04-02T16:09:14.916Z,94983.97
2018-04-02T16:11:43.266Z,94981.21
2018-04-02T16:14:11.586Z,94973.56
2018-04-02T16:16:39.972Z,94968.31
2018-04-02T16:19:08.293Z,94969.87
2018-04-02T16:21:36.614Z,94966.33
2018-04-02T16:24:05.001Z,94973.77
2018-04-02T16:26:33.487Z,94971.90
2018-04-02T16:29:01.785Z,94974.73
2018-04-02T16:31:30.115Z,94978.29
2018-04-02T16:33:58.464Z,94967.09
2018-04-02T16:36:26.887Z,94953.84
2018-04-02T16:38:55.234Z,94968.20
2018-04-02T16:41:23.650Z,94963.36
2018-04-02T16:43:52.042Z,94960.30
2018-04-02T16:46:20.410Z,94963.14
2018-04-02T16:48:48.822Z,94962.16
2018-04-02T16:51:17.126Z,94958.24
2018-04-02T16:53:45.553Z,94964.38
2018-04-02T16:56:13.880Z,94957.92
2018-04-02T16:58:42.215Z,94954.97
2018-04-02T17:01:10.592Z,94957.69
2018-04-02T17:03:38.923Z,94954.08
2018-04-02T17:06:07.323Z,94956.49
2018-04-02T17:08:35.669Z,94958.38
2018-04-02T17:11:04.175Z,94946.90
2018-04-02T17:13:32.573Z,94946.59
2018-04-02T17:16:00.887Z,94947.63
2018-04-02T17:18:29.432Z,94943.61
2018-04-02T17:20:57.784Z,94933.86
2018-04-02T17:23:26.095Z,94943.52
2018-04-02T17:25:54.494Z,94940.77
2018-04-02T17:28:22.792Z,94940.14
2018-04-02T17:30:51.220Z,94944.11
2018-04-02T17:33:19.527Z,94944.03
2018-04-02T17:35:47.952Z,94947.58
2018-04-02T17:38:16.262Z,94941.80
2018-04-02T17:40:44.712Z,94944.12
2018-04-02T17:43:13.024Z,94941.55
2018-04-02T17:45:41.384Z,94943.55
2018-04-02T17:48:09.713Z,94947.23
2018-04-02T17:50:38.055Z,94940.09
2018-04-02T17:53:06.387Z,94941.63
2018-04-02T17:55:34.719Z,94942.56
2018-04-02T17:58:03.028Z,94949.96
2018-04-02T18:00:31.371Z,94946.41
2018-04-02T18:02:59.682Z,94947.71
2018-04-02T18:05:28.077Z,94941.81
2018-04-02T18:07:56.422Z,94939.82
2018-04-02T18:10:24.755Z,94941.54
2018-04-02T18:12:53.427Z,94943.75
2018-04-02T18:15:21.409Z,94945.06
2018-04-02T18:17:49.769Z,94949.06
2018-04-02T18:20:18.143Z,94948.54
2018-04-02T18:22:46.640Z,94947.80
2018-04-02T18:25:14.948Z,94952.67
2018-04-02T18:27:43.302Z,94957.80
2018-04-02T18:30:11.352Z,94952.59
2018-04-02T18:32:39.689Z,94961.25
2018-04-02T18:35:08.101Z,94964.44
2018-04-02T18:37:36.450Z,94965.80
2018-04-02T18:40:04.771Z,94967.39
2018-04-02T18:42:33.130Z,94977.43
2018-04-02T18:45:01.472Z,94978.73
2018-04-02T18:47:29.787Z,94982.84
2018-04-02T18:49:58.843Z,94978.24
2018-04-02T18:52:27.194Z,94982.03
2018-04-02T18:54:55.537Z,94979.66
2018-04-02T18:57:23.908Z,94984.17
2018-04-02T18:59:52.286Z,94985.91
2018-04-02T19:02:20.626Z,94989.53
2018-04-02T19:04:49.058Z,94991.95
2018-04-02T19:07:17.419Z,94992.06
2018-04-02T19:09:45.754Z,94997.62
2018-04-02T19:12:14.090Z,94997.41
2018-04-02T19:14:42.428Z,95001.89
2018-04-02T19:17:10.831Z,95002.36
2018-04-02T19:19:39.255Z,95005.14
2018-04-02T19:22:07.572Z,95002.99
2018-04-02T19:24:35.928Z,94995.45
2018-04-02T19:27:04.256Z,94985.11
2018-04-02T19:29:32.607Z,94983.44
2018-04-02T19:32:00.922Z,94984.06
2018-04-02T19:34:29.484Z,94980.53
2018-04-02T19:36:57.801Z,94984.53
2018-04-02T19:39:26.132Z,94979.36
2018-04-02T19:41:54.454Z,94980.80
2018-04-02T19:44:22.777Z,94977.36
2018-04-02T19:46:51.181Z,94969.03
2018-04-02T19:49:19.483Z,94963.25
2018-04-02T19:51:47.813Z,94959.22
2018-04-02T19:54:16.204Z,94954.11
2018-04-02T19:56:44.547Z,94951.60
2018-04-02T19:59:12.959Z,94953.41
2018-04-02T20:01:41.348Z,94945.06
2018-04-02T20:04:09.656Z,94940.84
2018-04-02T20:06:38.148Z,94937.02
2018-04-02T20:09:06.470Z,94933.88
2018-04-02T20:11:34.807Z,94944.38
2018-04-02T20:14:03.117Z,94942.94
2018-04-02T20:16:31.457Z,94933.28
2018-04-02T20:18:59.779Z,94927.34
2018-04-02T20:21:28.121Z,94935.13
2018-04-02T20:23:56.459Z,94929.27
2018-04-02T20:26:24.787Z,94926.86
2018-04-02T20:28:53.279Z,94921.94
2018-04-02T20:31:21.611Z,94925.81
2018-04-02T20:33:49.921Z,94932.55
2018-04-02T20:36:18.275Z,94933.03
2018-04-02T20:38:46.719Z,94935.23
2018-04-02T20:41:15.030Z,94938.11
2018-04-02T20:43:43.366Z,94951.80
2018-04-02T20:46:11.735Z,94944.78
2018-04-02T20:48:40.064Z,94942.55
2018-04-02T20:51:08.392Z,94941.13
2018-04-02T20:53:36.839Z,94940.95
2018-04-02T20:56:05.255Z,94937.30
2018-04-02T20:58:33.599Z,94932.91
2018-04-02T21:01:02.103Z,94926.09
2018-04-02T21:03:30.439Z,94923.46
2018-04-02T21:05:58.791Z,94922.19
2018-04-02T21:08:27.130Z,94921.11
2018-04-02T21:10:55.517Z,94917.81
2018-04-02T21:13:23.870Z,94912.89
2018-04-02T21:15:52.172Z,94917.87
2018-04-02T21:18:20.568Z,94918.45
2018-04-02T21:20:48.890Z,94925.03
2018-04-02T21:23:17.308Z,94928.13
2018-04-02T21:25:45.696Z,94923.85
2018-04-02T21:28:14.056Z,94919.98
2018-04-02T21:30:42.460Z,94914.63
2018-04-02T21:33:10.807Z,94913.52
2018-04-02T21:35:39.147Z,94916.92
2018-04-02T21:38:07.455Z,94917.09
2018-04-02T21:40:35.803Z,94914.31
2018-04-02T21:43:04.136Z,94916.75
2018-04-02T21:45:32.473Z,94915.94
2018-04-02T21:48:00.781Z,94910.50
2018-04-02T21:50:29.110Z,94914.34
2018-04-02T21:52:57.422Z,94897.48
2018-04-02T21:55:25.770Z,94897.41
2018-04-02T21:57:54.111Z,94891.09
2018-04-02T22:00:22.475Z,94893.22
2018-04-02T22:02:50.876Z,94884.83
2018-04-02T22:05:19.244Z,94880.72
2018-04-02T22:07:47.611Z,94876.73
2018-04-02T22:10:15.950Z,94880.09
2018-04-02T22:12:44.367Z,94875.95
2018-04-02T22:15:12.697Z,94879.34
2018-04-02T22:17:41.146Z,94888.48
2018-04-02T22:20:09.523Z,94887.84
2018-04-02T22:22:37.831Z,94879.59
2018-04-02T22:25:06.250Z,94868.70
2018-04-02T22:27:34.638Z,94867.84
2018-04-02T22:30:03.125Z,94859.77
2018-04-02T22:32:31.438Z,94859.53
2018-04-02T22:34:59.792Z,94853.72
2018-04-02T22:37:28.141Z,94845.08
2018-04-02T22:39:56.406Z,94849.08
2018-04-02T22:42:24.767Z,94848.86
2018-04-02T22:44:53.085Z,94840.59
2018-04-02T22:47:21.459Z,94841.91
2018-04-02T22:49:49.844Z,94838.53
2018-04-02T22:52:18.187Z,94845.20
2018-04-02T22:54:46.600Z,94835.31
2018-04-02T22:57:14.932Z,94832.58
2018-04-02T22:59:43.248Z,94832.76
2018-04-02T23:02:11.638Z,94833.24
2018-04-02T23:04:39.947Z,94822.79
2018-04-02T23:07:08.378Z,94820.86
2018-04-02T23:09:36.692Z,94836.35
2018-04-02T23:12:05.026Z,94828.80
2018-04-02T23:14:33.364Z,94819.09
2018-04-02T23:17:01.789Z,94818.61
2018-04-02T23:19:30.110Z,94821.80
2018-04-02T23:21:58.450Z,94820.34
2018-04-02T23:24:26.784Z,94815.03
2018-04-02T23:26:55.116Z,94828.63
2018-04-02T23:29:23.435Z,94827.84
2018-04-02T23:31:51.862Z,94829.88
2018-04-02T23:34:20.175Z,94828.48
2018-04-02T23:36:48.615Z,94831.05
2018-04-02T23:39:16.991Z,94827.23
2018-04-02T23:41:45.303Z,94832.77
2018-04-02T23:44:13.643Z,94834.52
2018-04-02T23:46:41.944Z,94835.52
2018-04-02T23:49:10.287Z,94833.83
2018-04-02T23:51:38.603Z,94836.05
2018-04-02T23:54:06.940Z,94836.73
2018-04-02T23:56:35.338Z,94839.58
2018-04-02T23:59:03.680Z,94839.33
